Time;durP1;ratioP1;P1;durP2;ratioP2;P2;SDS_P1;SDS_P2;PMS_P1;PMS_P2;Temp;Humidity;BMP_temperature;BMP_pressure;BME280_temperature;BME280_humidity;BME280_pressure;Samples;Min_cycle;Max_cycle;Signal;HPM_P1;HPM_P2
2022/05/21 00:00:38;;;;;;;6.95;4.40;;;12.60;93.60;;;;;;2058650;28;20113;-96
2022/05/21 00:01:58;;;;;;;7.50;4.70;;;12.60;93.70;;;;;;2057317;28;20426;-94
2022/05/21 00:03:17;;;;;;;6.82;4.60;;;12.60;93.70;;;;;;2058815;28;20094;-96
2022/05/21 00:04:41;;;;;;;7.38;4.80;;;12.60;93.70;;;;;;2051415;28;20023;-94
2022/05/21 00:06:01;;;;;;;7.43;4.53;;;12.60;93.70;;;;;;2052370;29;20035;-96
2022/05/21 00:07:20;;;;;;;7.15;4.75;;;12.60;93.70;;;;;;2058376;28;20047;-94
2022/05/21 00:08:40;;;;;;;6.95;4.38;;;12.60;93.70;;;;;;2052931;28;20043;-94
2022/05/21 00:10:00;;;;;;;7.30;4.47;;;12.60;93.70;;;;;;2059849;28;20046;-94
2022/05/21 00:11:19;;;;;;;7.47;4.60;;;12.60;93.60;;;;;;2058842;28;20031;-96
2022/05/21 00:12:43;;;;;;;6.65;4.18;;;12.60;93.70;;;;;;2054903;28;20043;-94
2022/05/21 00:14:03;;;;;;;6.30;4.30;;;12.60;93.70;;;;;;2047255;29;20512;-94
2022/05/21 00:15:24;;;;;;;7.22;4.72;;;12.60;93.60;;;;;;2048539;29;20090;-94
2022/05/21 00:16:44;;;;;;;6.97;4.63;;;12.60;93.70;;;;;;2061782;28;20026;-96
2022/05/21 00:18:04;;;;;;;6.68;4.40;;;12.70;93.60;;;;;;2056695;28;20448;-96
2022/05/21 00:19:23;;;;;;;6.97;4.30;;;12.70;93.60;;;;;;2063883;28;20034;-94
2022/05/21 00:20:48;;;;;;;7.22;4.32;;;12.60;93.60;;;;;;2062943;28;20070;-94
2022/05/21 00:22:08;;;;;;;7.50;4.75;;;12.70;93.60;;;;;;2058953;28;20043;-96
2022/05/21 00:23:31;;;;;;;7.88;4.80;;;12.70;93.60;;;;;;2061578;28;20038;-94
2022/05/21 00:24:50;;;;;;;7.85;4.80;;;12.70;93.60;;;;;;2058039;28;20047;-94
2022/05/21 00:26:12;;;;;;;7.40;4.90;;;12.70;93.50;;;;;;2058795;28;21894;-94
2022/05/21 00:27:32;;;;;;;6.85;4.55;;;12.80;93.60;;;;;;2057534;28;20035;-93
2022/05/21 00:28:51;;;;;;;6.88;4.70;;;12.70;93.50;;;;;;2049955;29;20028;-94
2022/05/21 00:30:13;;;;;;;7.15;4.75;;;12.80;93.50;;;;;;2058613;28;20050;-95
2022/05/21 00:31:32;;;;;;;7.57;4.60;;;12.70;93.80;;;;;;2060603;28;20090;-93
2022/05/21 00:32:51;;;;;;;7.20;4.80;;;12.80;93.50;;;;;;2045009;29;20043;-95
2022/05/21 00:34:11;;;;;;;7.53;4.97;;;12.80;93.50;;;;;;2046319;29;20031;-94
2022/05/21 00:35:30;;;;;;;6.63;4.53;;;12.80;93.50;;;;;;2055299;28;20030;-94
2022/05/21 00:36:50;;;;;;;7.05;4.82;;;12.80;93.70;;;;;;2060925;28;20168;-93
2022/05/21 00:38:10;;;;;;;6.78;4.63;;;12.80;93.50;;;;;;2057371;28;20027;-94
2022/05/21 00:39:29;;;;;;;7.80;4.65;;;12.80;93.50;;;;;;2073440;28;20065;-94
2022/05/21 00:40:50;;;;;;;7.50;4.47;;;12.70;93.50;;;;;;2066682;28;20098;-94
2022/05/21 00:42:10;;;;;;;6.65;4.70;;;12.80;93.50;;;;;;2056843;28;20042;-95
2022/05/21 00:43:48;;;;;;;7.35;5.30;;;12.80;93.40;;;;;;2053006;28;20078;-94
2022/05/21 00:45:08;;;;;;;7.10;4.60;;;12.80;93.50;;;;;;2058585;28;20035;-94
2022/05/21 00:46:37;;;;;;;7.68;4.65;;;12.80;93.40;;;;;;2052934;29;20047;-94
2022/05/21 00:47:57;;;;;;;9.80;4.90;;;12.80;93.40;;;;;;2051489;28;20043;-96
2022/05/21 00:49:25;;;;;;;6.95;4.63;;;12.80;93.40;;;;;;2064816;28;20224;-94
2022/05/21 00:50:45;;;;;;;7.30;5.20;;;12.80;93.40;;;;;;2055609;28;20488;-95
2022/05/21 00:52:12;;;;;;;7.47;5.25;;;12.90;93.40;;;;;;2053816;28;20086;-95
2022/05/21 00:53:32;;;;;;;7.07;5.13;;;12.90;93.40;;;;;;2053521;28;20491;-94
2022/05/21 00:54:56;;;;;;;7.32;5.30;;;12.90;93.30;;;;;;2060831;28;20038;-95
2022/05/21 00:56:18;;;;;;;7.22;5.25;;;12.90;93.30;;;;;;2066150;28;20035;-94
2022/05/21 00:59:54;;;;;;;8.00;5.47;;;12.90;93.30;;;;;;2051778;28;20134;-95
2022/05/21 01:01:15;;;;;;;7.20;5.32;;;12.90;93.30;;;;;;2054622;28;20043;-94
2022/05/21 01:02:55;;;;;;;7.65;5.35;;;12.90;93.30;;;;;;2057036;28;20043;-94
2022/05/21 01:04:15;;;;;;;6.70;5.00;;;12.90;93.30;;;;;;2051899;29;20118;-95
2022/05/21 01:05:37;;;;;;;7.78;5.13;;;12.90;93.30;;;;;;2054755;28;20043;-95
2022/05/21 01:06:59;;;;;;;7.93;5.30;;;12.90;93.50;;;;;;2053823;28;20781;-94
2022/05/21 01:08:18;;;;;;;9.68;5.47;;;13.00;93.30;;;;;;2057664;28;20035;-95
2022/05/21 01:09:39;;;;;;;8.68;5.47;;;13.00;93.30;;;;;;2052040;28;20051;-95
2022/05/21 01:11:02;;;;;;;8.70;5.50;;;13.00;93.30;;;;;;2046308;29;20107;-94
2022/05/21 01:12:26;;;;;;;8.23;5.43;;;12.90;93.20;;;;;;2055712;28;20109;-95
2022/05/21 01:13:48;;;;;;;8.07;5.75;;;13.00;93.30;;;;;;2060895;28;20495;-95
2022/05/21 01:15:11;;;;;;;8.23;5.88;;;13.00;93.20;;;;;;2057775;28;20035;-96
2022/05/21 01:16:32;;;;;;;6.93;5.15;;;13.00;93.30;;;;;;2057981;28;20042;-94
2022/05/21 01:17:51;;;;;;;9.80;6.07;;;13.00;93.20;;;;;;2060996;28;20220;-95
2022/05/21 01:19:11;;;;;;;7.70;5.95;;;13.00;93.20;;;;;;2059911;28;20047;-94
2022/05/21 01:20:48;;;;;;;8.70;6.10;;;13.00;93.20;;;;;;2062294;28;20085;-95
2022/05/21 01:22:08;;;;;;;8.02;5.63;;;13.00;93.20;;;;;;2060835;28;20043;-95
2022/05/21 01:23:28;;;;;;;7.93;5.68;;;13.00;93.20;;;;;;2058251;28;20039;-94
2022/05/21 01:24:47;;;;;;;8.75;6.22;;;13.00;93.20;;;;;;2057355;28;20035;-93
2022/05/21 01:26:06;;;;;;;8.32;6.10;;;13.00;93.20;;;;;;2063883;28;20065;-95
2022/05/21 01:27:27;;;;;;;8.27;6.05;;;13.00;93.20;;;;;;2058909;28;20039;-95
2022/05/21 01:28:48;;;;;;;7.90;5.88;;;13.00;93.20;;;;;;2059354;28;20034;-94
2022/05/21 01:30:11;;;;;;;8.07;6.00;;;13.00;93.20;;;;;;2056883;28;20508;-94
2022/05/21 01:31:32;;;;;;;8.00;5.40;;;13.00;93.20;;;;;;2058727;28;20492;-95
2022/05/21 01:32:52;;;;;;;9.82;5.85;;;13.00;93.20;;;;;;2057760;28;20031;-95
2022/05/21 01:34:12;;;;;;;8.20;6.28;;;13.00;93.20;;;;;;2049370;29;20043;-94
2022/05/21 01:35:32;;;;;;;8.55;6.20;;;13.00;93.20;;;;;;2049605;29;20532;-95
2022/05/21 01:36:51;;;;;;;8.38;5.88;;;13.00;93.20;;;;;;2055874;28;20031;-95
2022/05/21 01:38:13;;;;;;;7.80;5.43;;;13.00;93.20;;;;;;2059080;28;20046;-95
2022/05/21 01:39:33;;;;;;;7.82;5.57;;;13.00;93.20;;;;;;2052494;29;20043;-95
2022/05/21 01:40:52;;;;;;;7.65;5.95;;;13.00;93.20;;;;;;2056646;28;20070;-94
2022/05/21 01:42:12;;;;;;;7.75;5.32;;;13.00;93.20;;;;;;2064723;28;20042;-96
2022/05/21 01:45:10;;;;;;;8.10;5.63;;;13.00;93.20;;;;;;2054449;28;20051;-93
2022/05/21 01:46:30;;;;;;;7.27;5.77;;;13.00;93.20;;;;;;2050204;28;20047;-94
2022/05/21 01:47:49;;;;;;;8.32;5.97;;;13.00;93.20;;;;;;2051813;28;21097;-95
2022/05/21 01:49:08;;;;;;;7.53;5.63;;;13.00;93.10;;;;;;2047298;29;20047;-95
2022/05/21 01:50:29;;;;;;;8.77;6.00;;;13.10;93.20;;;;;;2056590;28;20035;-94
2022/05/21 01:51:48;;;;;;;8.13;6.03;;;13.00;93.20;;;;;;2059482;28;20031;-94
2022/05/21 01:53:07;;;;;;;8.68;5.88;;;13.10;93.20;;;;;;2056503;28;20051;-95
2022/05/21 01:54:27;;;;;;;7.32;5.20;;;13.10;93.20;;;;;;2055589;28;20051;-94
2022/05/21 01:55:47;;;;;;;7.13;5.30;;;13.10;93.20;;;;;;2065148;28;20046;-94
2022/05/21 01:57:09;;;;;;;9.05;5.90;;;13.00;93.20;;;;;;2050175;28;20028;-94
2022/05/21 01:58:29;;;;;;;7.68;5.45;;;13.10;93.20;;;;;;2061438;28;20039;-94
2022/05/21 01:59:48;;;;;;;6.97;5.43;;;13.10;93.20;;;;;;2057557;28;20043;-94
2022/05/21 02:01:08;;;;;;;7.20;5.70;;;13.10;93.20;;;;;;2055000;28;20282;-95
2022/05/21 02:02:29;;;;;;;8.38;5.55;;;13.10;93.20;;;;;;2046716;28;20044;-95
2022/05/21 02:03:48;;;;;;;8.32;5.85;;;13.10;93.20;;;;;;2053781;28;20106;-96
2022/05/21 02:05:08;;;;;;;7.93;5.88;;;13.10;93.20;;;;;;2048017;28;20050;-95
2022/05/21 02:06:28;;;;;;;7.57;5.93;;;13.10;93.10;;;;;;2051092;28;20047;-95
2022/05/21 02:07:47;;;;;;;7.80;5.20;;;13.10;93.20;;;;;;2067823;28;20043;-95
2022/05/21 02:09:07;;;;;;;7.95;5.30;;;13.10;93.20;;;;;;2064479;28;20038;-95
2022/05/21 02:10:26;;;;;;;9.65;5.95;;;13.20;93.20;;;;;;2064962;28;20070;-95
2022/05/21 02:11:46;;;;;;;7.72;5.78;;;13.10;93.20;;;;;;2061421;28;20043;-95
2022/05/21 02:13:06;;;;;;;8.52;5.60;;;13.20;93.20;;;;;;2062401;28;20030;-96
2022/05/21 02:14:25;;;;;;;8.98;5.47;;;13.10;93.20;;;;;;2052912;28;20533;-96
2022/05/21 02:15:45;;;;;;;7.45;5.47;;;13.20;93.20;;;;;;2048241;29;20050;-95
2022/05/21 02:17:04;;;;;;;8.73;5.75;;;13.10;93.10;;;;;;2060550;28;20038;-94
2022/05/21 02:18:24;;;;;;;8.23;5.80;;;13.10;93.10;;;;;;2058910;28;20039;-95
2022/05/21 02:19:43;;;;;;;8.95;5.47;;;13.10;93.20;;;;;;2058507;28;20118;-95
2022/05/21 02:21:03;;;;;;;8.07;5.30;;;13.20;93.20;;;;;;2055149;28;20051;-94
2022/05/21 02:22:23;;;;;;;9.55;5.80;;;13.20;93.20;;;;;;2046619;29;20051;-95
2022/05/21 02:23:42;;;;;;;8.38;5.63;;;13.20;93.20;;;;;;2054740;28;20047;-94
2022/05/21 02:25:02;;;;;;;10.80;6.00;;;13.20;93.20;;;;;;2055587;28;20067;-95
2022/05/21 02:26:22;;;;;;;7.22;5.43;;;13.20;93.20;;;;;;2056725;28;20030;-95
2022/05/21 02:27:41;;;;;;;9.40;5.60;;;13.10;93.10;;;;;;2058995;28;20043;-95
2022/05/21 02:29:02;;;;;;;8.50;6.07;;;13.10;93.10;;;;;;2055937;28;20047;-95
2022/05/21 02:30:21;;;;;;;7.13;5.38;;;13.10;93.10;;;;;;2063225;28;20043;-95
2022/05/21 02:31:40;;;;;;;9.20;5.53;;;13.20;93.20;;;;;;2050995;29;20075;-94
2022/05/21 02:33:00;;;;;;;8.10;5.28;;;13.20;93.20;;;;;;2051819;28;20508;-95
2022/05/21 02:34:19;;;;;;;7.40;5.28;;;13.20;93.20;;;;;;2056075;28;20035;-95
2022/05/21 02:35:39;;;;;;;9.13;5.45;;;13.20;93.20;;;;;;2054872;28;20042;-94
2022/05/21 02:40:19;;;;;;;8.77;5.57;;;13.20;93.20;;;;;;2067593;28;20046;-94
2022/05/21 02:41:38;;;;;;;8.75;5.65;;;13.20;93.10;;;;;;2041491;29;20421;-95
2022/05/21 02:42:58;;;;;;;9.07;5.88;;;13.20;93.10;;;;;;2045608;28;20031;-94
2022/05/21 02:44:17;;;;;;;9.68;6.03;;;13.20;93.10;;;;;;2059033;28;20113;-94
2022/05/21 02:45:36;;;;;;;10.48;5.80;;;13.20;93.10;;;;;;2045889;29;20127;-94
2022/05/21 02:46:56;;;;;;;8.60;5.95;;;13.20;93.20;;;;;;2054564;28;20039;-94
2022/05/21 02:48:15;;;;;;;9.82;5.97;;;13.20;93.20;;;;;;2052359;28;20419;-94
2022/05/21 02:49:35;;;;;;;8.38;5.70;;;13.20;93.20;;;;;;2047570;29;20506;-94
2022/05/21 02:50:55;;;;;;;8.07;5.70;;;13.20;93.20;;;;;;2052803;28;20039;-94
2022/05/21 02:52:15;;;;;;;9.25;5.30;;;13.20;93.20;;;;;;2050738;28;20079;-94
2022/05/21 02:53:35;;;;;;;7.20;5.20;;;13.20;93.20;;;;;;2046267;29;20419;-94
2022/05/21 02:54:54;;;;;;;8.23;4.97;;;13.20;93.20;;;;;;2043194;29;20048;-95
2022/05/21 02:56:14;;;;;;;9.55;5.60;;;13.30;93.20;;;;;;2034914;29;20040;-95
2022/05/21 02:57:34;;;;;;;8.68;5.45;;;13.20;93.20;;;;;;2037376;29;20028;-95
2022/05/21 02:58:53;;;;;;;9.55;6.00;;;13.20;93.20;;;;;;2040176;29;20039;-95
2022/05/21 03:00:25;;;;;;;8.68;6.10;;;13.30;93.20;;;;;;2043369;29;20063;-95
2022/05/21 03:01:45;;;;;;;10.00;5.90;;;13.20;93.20;;;;;;2047228;29;20118;-95
2022/05/21 03:03:04;;;;;;;10.27;5.72;;;13.20;93.20;;;;;;2046935;28;20035;-94
2022/05/21 03:04:24;;;;;;;9.43;6.10;;;13.20;93.20;;;;;;2043751;29;20040;-94
2022/05/21 03:05:43;;;;;;;8.63;5.40;;;13.20;93.20;;;;;;2043718;28;20484;-95
2022/05/21 03:07:03;;;;;;;7.90;5.30;;;13.20;93.20;;;;;;2048695;29;20517;-95
2022/05/21 03:11:39;;;;;;;7.90;4.70;;;13.20;93.20;;;;;;2051218;28;20047;-95
2022/05/21 03:13:01;;;;;;;8.75;4.75;;;13.30;93.20;;;;;;2054771;28;20051;-95
2022/05/21 03:14:20;;;;;;;6.80;4.57;;;13.20;93.20;;;;;;2052327;28;20040;-95
2022/05/21 03:15:39;;;;;;;9.95;5.45;;;13.30;93.20;;;;;;2056708;28;20512;-95
2022/05/21 03:17:01;;;;;;;8.38;5.50;;;13.30;93.20;;;;;;2049463;29;20103;-95
2022/05/21 03:18:21;;;;;;;8.07;5.60;;;13.20;93.20;;;;;;2062685;28;20043;-95
2022/05/21 03:19:40;;;;;;;7.07;5.28;;;13.20;93.20;;;;;;2056276;28;20047;-95
2022/05/21 03:21:00;;;;;;;10.35;5.72;;;13.20;93.20;;;;;;2042061;29;20032;-95
2022/05/21 03:22:19;;;;;;;9.27;5.63;;;13.30;93.20;;;;;;2045024;28;20079;-94
2022/05/21 03:23:38;;;;;;;7.18;5.10;;;13.30;93.30;;;;;;2048835;29;20051;-95
2022/05/21 03:24:58;;;;;;;9.18;5.32;;;13.30;93.30;;;;;;2048190;29;20020;-94
2022/05/21 03:26:17;;;;;;;9.10;5.60;;;13.30;93.30;;;;;;2047711;29;20043;-94
2022/05/21 03:27:38;;;;;;;8.10;5.03;;;13.30;93.30;;;;;;2054371;28;20035;-94
2022/05/21 03:28:58;;;;;;;8.80;4.90;;;13.30;93.30;;;;;;2059354;29;20035;-94
2022/05/21 03:30:21;;;;;;;8.18;5.47;;;13.30;93.30;;;;;;2046786;29;20043;-94
2022/05/21 03:31:40;;;;;;;10.80;5.60;;;13.30;93.30;;;;;;2046785;28;20035;-94
2022/05/21 03:33:00;;;;;;;7.43;4.70;;;13.30;93.30;;;;;;2046459;29;20118;-95
2022/05/21 03:34:20;;;;;;;8.68;5.43;;;13.30;93.30;;;;;;2045357;28;20035;-94
2022/05/21 03:35:41;;;;;;;8.30;4.90;;;13.30;93.30;;;;;;2048259;29;20043;-94
2022/05/21 03:37:00;;;;;;;8.60;4.78;;;13.30;93.30;;;;;;2055772;28;20035;-94
2022/05/21 03:38:19;;;;;;;6.57;5.00;;;13.30;93.30;;;;;;2051455;28;20048;-93
2022/05/21 03:39:39;;;;;;;7.78;5.10;;;13.30;93.30;;;;;;2057752;28;20054;-95
2022/05/21 03:40:58;;;;;;;7.65;4.93;;;13.30;93.30;;;;;;2059553;28;20035;-94
2022/05/21 03:42:18;;;;;;;8.25;4.65;;;13.30;93.40;;;;;;2057835;28;20507;-95
2022/05/21 03:43:37;;;;;;;10.23;5.07;;;13.30;93.40;;;;;;2063171;28;20043;-94
2022/05/21 03:44:56;;;;;;;7.78;4.78;;;13.30;93.30;;;;;;2051518;28;20122;-95
2022/05/21 03:46:16;;;;;;;6.85;4.82;;;13.30;93.40;;;;;;2053856;28;20043;-94
2022/05/21 03:47:35;;;;;;;7.63;4.70;;;13.30;93.40;;;;;;2055687;28;20144;-95
2022/05/21 03:48:55;;;;;;;8.68;4.85;;;13.30;93.40;;;;;;2042513;29;20077;-94
2022/05/21 03:50:18;;;;;;;6.20;4.80;;;13.30;93.40;;;;;;2044330;29;20039;-93
2022/05/21 03:51:37;;;;;;;8.60;4.65;;;13.30;93.40;;;;;;2061689;28;20030;-95
2022/05/21 03:52:57;;;;;;;7.90;4.97;;;13.30;93.50;;;;;;2058442;28;20043;-95
2022/05/21 03:54:16;;;;;;;6.22;4.45;;;13.30;93.50;;;;;;2046774;29;20043;-93
2022/05/21 03:55:37;;;;;;;8.82;5.10;;;13.30;93.50;;;;;;2055775;28;20039;-93
2022/05/21 03:56:56;;;;;;;7.68;4.78;;;13.30;93.50;;;;;;2050408;29;20098;-94
2022/05/21 03:58:16;;;;;;;6.15;4.45;;;13.30;93.40;;;;;;2052303;28;20106;-95
2022/05/21 03:59:35;;;;;;;7.57;4.65;;;13.30;93.40;;;;;;2062435;28;20042;-95
2022/05/21 04:00:55;;;;;;;8.38;4.75;;;13.30;93.40;;;;;;2050451;29;20043;-95
2022/05/21 04:02:14;;;;;;;7.78;4.85;;;13.30;93.40;;;;;;2057535;28;20451;-94
2022/05/21 04:03:34;;;;;;;8.95;4.78;;;13.30;93.40;;;;;;2064091;28;20050;-93
2022/05/21 04:04:54;;;;;;;6.82;4.60;;;13.40;93.50;;;;;;2044542;29;20047;-95
2022/05/21 04:06:13;;;;;;;7.75;3.92;;;13.40;93.40;;;;;;2053021;28;20511;-94
2022/05/21 04:07:32;;;;;;;7.78;4.68;;;13.40;93.40;;;;;;2047391;29;20043;-94
2022/05/21 04:08:52;;;;;;;6.80;4.05;;;13.40;93.40;;;;;;2055076;28;20040;-94
2022/05/21 04:10:14;;;;;;;9.50;4.60;;;13.40;93.40;;;;;;2058049;28;20122;-94
2022/05/21 04:11:33;;;;;;;7.03;4.30;;;13.40;93.40;;;;;;2062131;28;20073;-94
2022/05/21 04:12:53;;;;;;;6.90;4.30;;;13.40;93.40;;;;;;2050757;28;20040;-94
2022/05/21 04:14:14;;;;;;;7.57;4.50;;;13.40;93.40;;;;;;2054440;28;20113;-94
2022/05/21 04:15:34;;;;;;;8.35;4.32;;;13.50;93.40;;;;;;2055974;28;20455;-94
2022/05/21 04:16:58;;;;;;;6.97;4.45;;;13.50;93.40;;;;;;2047550;28;20043;-94
2022/05/21 04:18:19;;;;;;;8.48;4.15;;;13.50;93.40;;;;;;2052490;28;20442;-94
2022/05/21 04:19:39;;;;;;;9.35;4.72;;;13.50;93.40;;;;;;2055315;28;20098;-94
2022/05/21 04:20:58;;;;;;;7.18;4.25;;;13.50;93.40;;;;;;2058768;28;20039;-95
2022/05/21 04:22:18;;;;;;;8.10;4.50;;;13.50;93.40;;;;;;2053445;28;20035;-95
2022/05/21 04:23:37;;;;;;;7.53;4.32;;;13.50;93.40;;;;;;2055726;28;20419;-95
2022/05/21 04:24:57;;;;;;;7.65;3.90;;;13.50;93.40;;;;;;2066556;28;20494;-94
2022/05/21 04:26:16;;;;;;;8.57;3.65;;;13.60;93.40;;;;;;2064404;28;20031;-94
2022/05/21 04:27:39;;;;;;;6.45;3.97;;;13.60;93.40;;;;;;2058253;28;20043;-94
2022/05/21 04:28:58;;;;;;;8.75;4.38;;;13.60;93.40;;;;;;2054866;28;20031;-94
2022/05/21 04:30:21;;;;;;;8.68;4.50;;;13.60;93.40;;;;;;2046506;28;20031;-94
2022/05/21 04:31:41;;;;;;;9.20;4.43;;;13.60;93.40;;;;;;2060184;28;20038;-94
2022/05/21 04:33:00;;;;;;;8.35;4.22;;;13.60;93.40;;;;;;2055884;28;20031;-95
2022/05/21 04:34:19;;;;;;;10.23;5.07;;;13.60;93.40;;;;;;2054308;28;20035;-95
2022/05/21 04:37:19;;;;;;;10.73;4.45;;;13.60;93.30;;;;;;2058524;28;20054;-94
2022/05/21 04:38:38;;;;;;;8.80;4.40;;;13.60;93.30;;;;;;2066188;28;20051;-94
2022/05/21 04:39:58;;;;;;;6.63;3.88;;;13.60;93.30;;;;;;2049965;29;20039;-94
2022/05/21 04:41:19;;;;;;;6.95;4.05;;;13.60;93.40;;;;;;2046733;28;20074;-94
2022/05/21 04:42:38;;;;;;;6.40;3.70;;;13.70;93.40;;;;;;2063203;28;20042;-94
2022/05/21 04:43:57;;;;;;;8.18;3.80;;;13.70;93.40;;;;;;2058351;28;20062;-93
2022/05/21 04:45:17;;;;;;;7.88;4.22;;;13.70;93.40;;;;;;2056148;28;20038;-94
2022/05/21 04:46:37;;;;;;;7.55;3.97;;;13.70;93.40;;;;;;2052790;29;20059;-95
2022/05/21 04:47:56;;;;;;;8.27;4.03;;;13.70;93.60;;;;;;2055120;28;20047;-93
2022/05/21 04:49:15;;;;;;;8.10;3.88;;;13.80;93.40;;;;;;2055033;28;20055;-95
2022/05/21 04:50:37;;;;;;;6.05;3.47;;;13.80;93.40;;;;;;2056434;28;20031;-95
2022/05/21 04:51:57;;;;;;;7.88;4.00;;;13.80;93.40;;;;;;2055828;28;20035;-93
2022/05/21 04:53:16;;;;;;;7.18;3.97;;;13.80;93.40;;;;;;2057329;28;20487;-94
2022/05/21 04:54:36;;;;;;;9.07;4.10;;;13.80;93.30;;;;;;2055221;28;20031;-94
2022/05/21 04:55:56;;;;;;;8.32;3.97;;;13.80;93.30;;;;;;2050844;29;20039;-96
2022/05/21 04:57:15;;;;;;;7.60;4.03;;;13.80;93.30;;;;;;2055021;28;20039;-96
2022/05/21 04:58:35;;;;;;;7.85;4.10;;;13.80;93.30;;;;;;2066343;28;20033;-95
2022/05/21 04:59:54;;;;;;;7.75;4.00;;;13.80;93.30;;;;;;2064261;28;20478;-94
2022/05/21 05:01:14;;;;;;;9.50;3.80;;;13.80;93.30;;;;;;2045227;29;20044;-95
2022/05/21 05:02:33;;;;;;;7.75;3.80;;;13.80;93.30;;;;;;2055942;28;20042;-95
2022/05/21 05:03:53;;;;;;;8.55;3.85;;;13.80;93.30;;;;;;2049067;28;20055;-95
2022/05/21 05:05:13;;;;;;;7.25;3.78;;;13.90;93.30;;;;;;2047115;28;20040;-95
2022/05/21 05:06:33;;;;;;;6.85;3.92;;;13.90;93.30;;;;;;2050195;29;20047;-95
2022/05/21 05:07:52;;;;;;;9.18;3.85;;;13.90;93.30;;;;;;2054707;28;20039;-94
2022/05/21 05:09:12;;;;;;;8.00;3.50;;;13.90;93.30;;;;;;2050532;29;20044;-95
2022/05/21 05:10:31;;;;;;;8.20;3.95;;;13.90;93.30;;;;;;2047189;29;20051;-94
2022/05/21 05:11:51;;;;;;;7.78;3.60;;;13.90;93.30;;;;;;2048653;28;20073;-94
2022/05/21 05:13:11;;;;;;;8.48;3.85;;;14.00;93.20;;;;;;2057247;28;20526;-94
2022/05/21 05:14:30;;;;;;;8.63;3.33;;;14.00;93.20;;;;;;2051756;28;20064;-94
2022/05/21 05:15:49;;;;;;;10.90;3.50;;;14.00;93.20;;;;;;2054930;28;20282;-96
2022/05/21 05:17:13;;;;;;;7.85;3.30;;;14.00;93.20;;;;;;2058440;28;20034;-94
2022/05/21 05:18:32;;;;;;;9.23;3.47;;;14.00;93.20;;;;;;2058342;28;20038;-96
2022/05/21 05:19:54;;;;;;;7.53;3.30;;;14.00;93.20;;;;;;2052126;29;20043;-95
2022/05/21 05:21:16;;;;;;;8.85;3.33;;;14.10;93.20;;;;;;2046223;28;20084;-95
2022/05/21 05:22:36;;;;;;;7.82;3.22;;;14.10;93.20;;;;;;2041286;29;20043;-96
2022/05/21 05:23:55;;;;;;;7.88;3.33;;;14.10;93.20;;;;;;2049373;28;20113;-94
2022/05/21 05:25:15;;;;;;;7.35;3.17;;;14.10;93.10;;;;;;2057039;28;20051;-96
2022/05/21 05:26:34;;;;;;;9.27;2.90;;;14.10;93.10;;;;;;2064468;28;20034;-95
2022/05/21 05:27:53;;;;;;;7.32;2.90;;;14.10;93.10;;;;;;2052911;28;20094;-95
2022/05/21 05:29:12;;;;;;;8.65;2.78;;;14.10;93.10;;;;;;2055403;28;20067;-95
2022/05/21 05:30:32;;;;;;;10.13;3.10;;;14.20;93.10;;;;;;2053252;29;20031;-94
2022/05/21 05:31:52;;;;;;;8.77;3.05;;;14.20;93.10;;;;;;2036385;29;20045;-94
2022/05/21 05:33:11;;;;;;;7.57;3.05;;;14.20;93.10;;;;;;2043863;29;20043;-96
2022/05/21 05:34:30;;;;;;;6.60;3.00;;;14.20;93.10;;;;;;2062648;28;20038;-96
2022/05/21 05:35:54;;;;;;;10.68;2.95;;;14.20;93.00;;;;;;2058083;28;20039;-95
2022/05/21 05:37:13;;;;;;;6.82;3.00;;;14.30;93.00;;;;;;2051475;29;20055;-95
2022/05/21 05:38:33;;;;;;;8.83;2.93;;;14.30;93.00;;;;;;2063064;28;20522;-94
2022/05/21 05:39:56;;;;;;;8.30;3.05;;;14.30;93.00;;;;;;2035154;29;20052;-94
2022/05/21 05:41:15;;;;;;;10.20;3.53;;;14.30;93.00;;;;;;2053147;28;20038;-96
2022/05/21 05:42:36;;;;;;;8.40;3.17;;;14.30;93.00;;;;;;2057915;28;20042;-95
2022/05/21 05:44:01;;;;;;;;;;;14.30;93.00;;;;;;2058400;28;20038;-96
2022/05/21 05:45:20;;;;;;;5.65;2.70;;;14.30;93.00;;;;;;2059793;28;19918;-95
2022/05/21 05:46:39;;;;;;;6.90;2.60;;;14.20;92.90;;;;;;2059307;28;20047;-94
2022/05/21 05:47:59;;;;;;;10.73;3.10;;;14.30;93.00;;;;;;2055346;28;20567;-95
2022/05/21 05:49:18;;;;;;;9.63;3.33;;;14.40;92.90;;;;;;2056045;28;20054;-95
2022/05/21 05:50:37;;;;;;;8.90;2.88;;;14.40;92.90;;;;;;2043271;29;20038;-94
2022/05/21 05:52:00;;;;;;;6.70;2.45;;;14.40;92.80;;;;;;2058795;28;20035;-94
2022/05/21 05:53:19;;;;;;;8.65;2.80;;;14.40;92.80;;;;;;2056397;28;20039;-93
2022/05/21 05:54:39;;;;;;;8.05;2.80;;;14.50;92.70;;;;;;2048035;29;20506;-95
2022/05/21 05:55:58;;;;;;;10.50;3.10;;;14.60;92.70;;;;;;2052153;29;20043;-95
2022/05/21 05:57:18;;;;;;;7.50;2.63;;;14.70;92.60;;;;;;2051591;28;20035;-94
2022/05/21 06:00:15;;;;;;;8.50;2.50;;;14.70;92.40;;;;;;2066874;28;20042;-95
2022/05/21 06:01:35;;;;;;;7.38;2.47;;;14.80;92.40;;;;;;2060256;28;20046;-96
2022/05/21 06:03:04;;;;;;;7.00;2.40;;;14.80;92.40;;;;;;2057848;28;20475;-95
2022/05/21 06:04:32;;;;;;;7.68;2.22;;;14.80;92.40;;;;;;2059045;28;20047;-96
2022/05/21 06:05:54;;;;;;;7.85;2.05;;;14.80;92.30;;;;;;2048618;28;20469;-95
2022/05/21 06:07:14;;;;;;;5.20;2.03;;;14.90;92.30;;;;;;2050753;28;20039;-94
2022/05/21 06:08:37;;;;;;;8.25;2.00;;;14.90;92.20;;;;;;2060275;28;20066;-95
2022/05/21 06:10:04;;;;;;;4.22;1.75;;;14.90;92.10;;;;;;2060668;28;20035;-94
2022/05/21 06:11:28;;;;;;;6.68;2.20;;;14.90;92.10;;;;;;2069970;28;20035;-94
2022/05/21 06:13:06;;;;;;;6.00;2.00;;;14.90;92.10;;;;;;2061966;28;20043;-95
2022/05/21 06:15:00;;;;;;;4.70;1.60;;;15.00;92.10;;;;;;2061406;28;20030;-95
2022/05/21 06:16:21;;;;;;;8.20;1.98;;;15.00;92.00;;;;;;2053978;28;20085;-94
2022/05/21 06:17:50;;;;;;;5.03;1.70;;;15.00;91.90;;;;;;2061341;28;20046;-95
2022/05/21 06:19:09;;;;;;;6.35;1.77;;;15.00;91.90;;;;;;2067357;28;20046;-94
2022/05/21 06:20:29;;;;;;;7.10;2.00;;;15.00;91.90;;;;;;2051323;28;20043;-95
2022/05/21 06:21:55;;;;;;;7.47;1.90;;;15.00;91.90;;;;;;2048122;29;20043;-96
2022/05/21 06:23:15;;;;;;;6.65;1.80;;;15.00;91.90;;;;;;2052363;28;20392;-95
2022/05/21 06:24:38;;;;;;;8.23;2.00;;;15.10;91.80;;;;;;2056278;28;20447;-95
2022/05/21 06:26:10;;;;;;;;;;;;;;;;;;;;;
2022/05/21 06:27:30;;;;;;;7.00;2.20;;;15.20;91.60;;;;;;2058460;28;20126;-96
2022/05/21 06:28:50;;;;;;;7.20;1.63;;;15.20;91.50;;;;;;2065993;28;20039;-94
2022/05/21 06:30:13;;;;;;;7.40;1.90;;;15.20;91.50;;;;;;2054049;28;20512;-95
2022/05/21 06:31:34;;;;;;;5.55;1.70;;;15.30;91.50;;;;;;2050331;28;20387;-94
2022/05/21 06:32:54;;;;;;;;;;;15.30;91.50;;;;;;2056816;28;20047;-94
2022/05/21 06:34:14;;;;;;;8.00;1.60;;;15.30;91.50;;;;;;2054695;28;19910;-94
2022/05/21 06:35:57;;;;;;;5.35;1.67;;;15.30;91.40;;;;;;2052191;28;20086;-94
2022/05/21 06:37:19;;;;;;;5.63;1.40;;;15.40;91.40;;;;;;2055656;28;20047;-94
2022/05/21 06:38:49;;;;;;;5.93;1.52;;;15.40;91.40;;;;;;2059319;28;20073;-95
2022/05/21 06:40:19;;;;;;;5.25;1.10;;;15.40;91.30;;;;;;2052754;28;20146;-96
2022/05/21 06:41:41;;;;;;;5.65;1.27;;;15.40;91.30;;;;;;2057829;28;20527;-94
2022/05/21 06:43:07;;;;;;;5.82;1.40;;;15.50;91.30;;;;;;2050306;28;20039;-96
2022/05/21 06:44:41;;;;;;;;;;;;;;;;;;;;;
2022/05/21 06:46:03;;;;;;;5.25;1.42;;;15.50;91.20;;;;;;2057539;28;20035;-94
2022/05/21 06:47:30;;;;;;;4.82;1.20;;;15.50;91.10;;;;;;2055820;28;20047;-94
2022/05/21 06:48:57;;;;;;;4.43;1.40;;;15.50;91.10;;;;;;2049397;29;20051;-94
2022/05/21 06:50:33;;;;;;;5.80;1.17;;;15.40;91.00;;;;;;2058327;28;20038;-95
2022/05/21 06:51:59;;;;;;;5.05;1.30;;;15.50;91.00;;;;;;2065344;28;20034;-95
2022/05/21 06:53:19;;;;;;;6.22;1.40;;;15.50;90.90;;;;;;2059956;28;20035;-94
2022/05/21 06:54:38;;;;;;;9.10;1.42;;;15.50;90.90;;;;;;2057519;28;20043;-95
2022/05/21 06:56:20;;;;;;;5.60;1.45;;;15.50;90.90;;;;;;2051144;29;20063;-95
2022/05/21 06:57:40;;;;;;;5.65;1.10;;;15.60;90.80;;;;;;2043613;29;20059;-95
2022/05/21 06:58:59;;;;;;;4.85;1.30;;;15.60;90.70;;;;;;2052089;28;20043;-94
2022/05/21 07:00:25;;;;;;;5.15;1.40;;;15.60;90.60;;;;;;2051481;28;20038;-94
2022/05/21 07:01:45;;;;;;;7.75;1.30;;;15.70;90.60;;;;;;2059250;28;20039;-94
2022/05/21 07:03:05;;;;;;;5.88;1.30;;;15.70;90.60;;;;;;2047322;29;20063;-93
2022/05/21 07:07:44;;;;;;;8.05;1.63;;;15.80;90.40;;;;;;2063705;28;20043;-95
2022/05/21 07:09:06;;;;;;;3.93;0.93;;;15.80;90.30;;;;;;2058021;28;20475;-95
2022/05/21 07:10:29;;;;;;;4.97;1.20;;;15.80;90.20;;;;;;2049902;28;20624;-94
2022/05/21 07:11:50;;;;;;;5.63;1.35;;;15.80;90.20;;;;;;2050800;28;20055;-94
2022/05/21 07:13:10;;;;;;;3.85;1.02;;;15.80;90.20;;;;;;2045344;29;20047;-95
2022/05/21 07:14:31;;;;;;;6.05;1.10;;;15.80;90.20;;;;;;2055002;28;20043;-95
2022/05/21 07:15:53;;;;;;;5.40;1.17;;;15.80;90.10;;;;;;2042256;29;20035;-94
2022/05/21 07:17:13;;;;;;;5.70;1.17;;;15.80;90.10;;;;;;2052181;28;20067;-94
2022/05/21 07:18:50;;;;;;;4.07;1.25;;;15.80;90.10;;;;;;2062629;28;20026;-94
2022/05/21 07:20:15;;;;;;;4.57;1.30;;;15.80;90.10;;;;;;2049145;29;20039;-94